Peterborough, United Kingdom
Current Conditions -  °F | °C
As of 5:50 AM on Thursday 23 Oct 2014 (Local Time) from EGXT Reporting Station
Overcast Overcast  
Wind Chill: 10°   Ceiling: 3200
Heat Index: 10°   Visibility: 6mi
Dew Point:   Wind: 8mph
Humidity: 87%   Direction: 180°S
Pressure: 30.06"   Gusts: NA
Location:  52.57°N, 0.24°W
Report Text: EGXT 230450Z AUTO 18007KT 9999 // OVC032/// 10/08 Q1018
Loading
Personal Weather Stations






























Interactive Weather Map
Tropical Storm Tracking
New forecast layout! Learn more

10-Day Weather Forecast

Advertisements
Track Severe Weather on mobile